createdAt,value
2018-07-19T00:04:32.430Z,-58
2018-07-19T00:14:32.476Z,-58
2018-07-19T00:24:32.407Z,-59
2018-07-19T00:34:32.369Z,-58
2018-07-19T00:44:32.551Z,-59
2018-07-19T00:54:32.470Z,-58
2018-07-19T01:04:32.490Z,-57
2018-07-19T01:14:32.544Z,-58
2018-07-19T01:24:32.493Z,-59
2018-07-19T01:34:33.143Z,-57
2018-07-19T01:44:32.566Z,-58
2018-07-19T01:54:32.536Z,-58
2018-07-19T02:04:32.439Z,-59
2018-07-19T02:14:32.595Z,-60
2018-07-19T02:24:32.557Z,-59
2018-07-19T02:34:32.634Z,-58
2018-07-19T02:44:32.522Z,-58
2018-07-19T02:54:32.536Z,-57
2018-07-19T03:04:34.053Z,-58
2018-07-19T03:14:34.377Z,-58
2018-07-19T03:24:32.567Z,-58
2018-07-19T03:34:32.586Z,-60
2018-07-19T03:44:32.564Z,-57
2018-07-19T03:54:32.653Z,-59
2018-07-19T04:04:32.548Z,-57
2018-07-19T04:14:32.675Z,-58
2018-07-19T04:24:32.644Z,-59
2018-07-19T04:34:32.641Z,-59
2018-07-19T04:44:32.622Z,-57
2018-07-19T04:54:32.585Z,-59
2018-07-19T05:04:32.683Z,-58
2018-07-19T05:14:32.599Z,-59
2018-07-19T05:24:32.770Z,-57
2018-07-19T05:34:32.744Z,-58
2018-07-19T05:44:32.682Z,-59
2018-07-19T05:54:33.681Z,-60
2018-07-19T06:04:34.776Z,-58
2018-07-19T06:14:32.756Z,-59
2018-07-19T06:24:37.786Z,-59
2018-07-19T06:34:33.804Z,-56
2018-07-19T06:44:32.764Z,-59
2018-07-19T06:54:32.723Z,-59
2018-07-19T07:04:32.767Z,-60
2018-07-19T07:14:32.974Z,-59
2018-07-19T07:24:34.103Z,-59
2018-07-19T07:34:32.752Z,-58
2018-07-19T07:44:33.842Z,-59
2018-07-19T07:54:32.989Z,-58
2018-07-19T08:04:32.681Z,-58
2018-07-19T08:14:32.749Z,-58
2018-07-19T08:24:32.672Z,-58
2018-07-19T08:34:32.799Z,-58
2018-07-19T08:44:32.732Z,-57
2018-07-19T08:54:32.761Z,-58
2018-07-19T09:04:32.769Z,-58
2018-07-19T09:14:33.154Z,-59
2018-07-19T09:24:32.777Z,-59
2018-07-19T09:34:32.749Z,-58
2018-07-19T09:44:32.708Z,-58
2018-07-19T09:54:32.807Z,-57
2018-07-19T10:04:32.859Z,-58
2018-07-19T10:14:32.744Z,-58
2018-07-19T10:24:32.788Z,-57
2018-07-19T10:34:32.702Z,-58
2018-07-19T10:44:33.107Z,-56
2018-07-19T10:54:32.780Z,-57
2018-07-19T11:04:32.768Z,-58
2018-07-19T11:14:32.769Z,-59
2018-07-19T11:24:32.743Z,-58
2018-07-19T11:34:32.718Z,-57
2018-07-19T11:44:32.710Z,-57
2018-07-19T11:54:32.757Z,-58
2018-07-19T12:04:32.788Z,-56
2018-07-19T12:14:33.113Z,-58
2018-07-19T12:24:32.740Z,-57
2018-07-19T12:34:32.822Z,-58
2018-07-19T12:44:32.962Z,-58
2018-07-19T12:54:32.735Z,-57
2018-07-19T13:04:33.059Z,-58
2018-07-19T13:14:33.123Z,-57
2018-07-19T13:24:32.780Z,-57
2018-07-19T13:34:33.005Z,-57
2018-07-19T13:44:32.789Z,-58
2018-07-19T13:54:32.842Z,-57
2018-07-19T14:04:32.848Z,-58
2018-07-19T14:14:32.886Z,-59
2018-07-19T14:24:33.527Z,-58
2018-07-19T14:34:32.757Z,-58
2018-07-19T14:44:32.811Z,-57
2018-07-19T14:54:32.830Z,-58
2018-07-19T15:04:32.773Z,-58
2018-07-19T15:14:32.801Z,-57
2018-07-19T15:24:32.833Z,-58
2018-07-19T15:34:32.848Z,-58
2018-07-19T15:44:34.990Z,-57
2018-07-19T15:54:46.779Z,-56
2018-07-19T16:04:44.213Z,-58
2018-07-19T16:14:33.275Z,-58
2018-07-19T16:24:33.322Z,-60
2018-07-19T16:34:32.884Z,-58
2018-07-19T16:44:34.219Z,-57
2018-07-19T16:54:32.857Z,-57
2018-07-19T17:04:32.888Z,-58
2018-07-19T17:14:33.093Z,-58
2018-07-19T17:24:32.900Z,-58
2018-07-19T17:34:33.006Z,-56
2018-07-19T17:44:32.896Z,-58
2018-07-19T17:54:33.350Z,-58
2018-07-19T18:04:32.925Z,-60
2018-07-19T18:14:32.884Z,-60
2018-07-19T18:24:32.974Z,-63
2018-07-19T18:34:33.910Z,-67
2018-07-19T18:44:32.837Z,-68
2018-07-19T18:54:32.905Z,-64
2018-07-19T19:04:33.103Z,-63
2018-07-19T19:14:32.973Z,-62
2018-07-19T19:24:32.967Z,-62
2018-07-19T19:34:32.946Z,-69
2018-07-19T19:44:32.866Z,-65
2018-07-19T19:54:32.969Z,-66
2018-07-19T20:04:33.937Z,-61
2018-07-19T20:14:32.870Z,-67
2018-07-19T20:24:33.031Z,-63
2018-07-19T20:34:32.974Z,-64
2018-07-19T20:44:32.978Z,-61
2018-07-19T20:54:32.884Z,-60
2018-07-19T21:04:32.912Z,-65
2018-07-19T21:14:33.025Z,-67
2018-07-19T21:24:33.049Z,-67
2018-07-19T21:34:32.904Z,-62
2018-07-19T21:44:33.019Z,-63
2018-07-19T21:54:32.981Z,-58
2018-07-19T22:04:32.885Z,-60
2018-07-19T22:14:32.892Z,-61
2018-07-19T22:24:32.940Z,-61
2018-07-19T22:34:32.993Z,-61
2018-07-19T22:44:32.907Z,-57
2018-07-19T22:54:33.930Z,-60
2018-07-19T23:04:32.925Z,-60
2018-07-19T23:14:32.907Z,-61
2018-07-19T23:25:03.960Z,-62
2018-07-19T23:34:44.184Z,-61
2018-07-19T23:44:32.908Z,-60
2018-07-19T23:54:33.051Z,-60
